This is the latest recevied weather packets stored in our database for station/object M0TUM-1. If no packets are shown the sender has not sent any weather packets the latest 1 day(s).
| Time | Temp. | Humidity | Pressure | Rain* | Wind** | Luminosity | Snow |
|---|---|---|---|---|---|---|---|
| 1777987690 | 16.11° C | 55% | 1012.6 hPa | 0 mm | 1.34 m/s, 37° | 538 W/m² | - |
| 1777987388 | 15.56° C | 56% | 1012.6 hPa | 0 mm | 0.89 m/s, 157° | 304 W/m² | - |
| 1777987085 | 15.56° C | 55% | 1012.4 hPa | 0 mm | 3.13 m/s, 65° | 236 W/m² | - |
| 1777986782 | 15.56° C | 56% | 1012.4 hPa | 0 mm | 0.45 m/s, 254° | 185 W/m² | - |
| 1777986480 | 15.56° C | 55% | 1012.1 hPa | 0 mm | 0.45 m/s, 9° | 170 W/m² | - |
| 1777986185 | 15.56° C | 54% | 1012.3 hPa | 0 mm | 0.45 m/s, 65° | 164 W/m² | - |
| 1777985874 | 16.11° C | 53% | 1012.5 hPa | 0 mm | 1.34 m/s, 341° | 141 W/m² | - |
| 1777985572 | 16.11° C | 52% | 1012.4 hPa | 0 mm | 0.45 m/s, 346° | 131 W/m² | - |
| 1777985268 | 16.67° C | 49% | 1012.4 hPa | 0 mm | 1.34 m/s, 325° | 131 W/m² | - |
| 1777984965 | 17.22° C | 47% | 1012.4 hPa | 0 mm | 1.79 m/s, 23° | 172 W/m² | - |
| 1777984660 | 17.22° C | 46% | 1012.2 hPa | 0 mm | 0.45 m/s, 48° | 194 W/m² | - |
| 1777984357 | 17.78° C | 45% | 1012.2 hPa | 0 mm | 0.45 m/s, 126° | 221 W/m² | - |
| 1777984054 | 17.22° C | 47% | 1012.2 hPa | 0 mm | 1.79 m/s, 358° | 336 W/m² | - |
| 1777983751 | 17.22° C | 46% | 1012.4 hPa | 0 mm | 0.45 m/s, 209° | 281 W/m² | - |
| 1777983448 | 16.67° C | 46% | 1012.1 hPa | 0 mm | 0 m/s | 268 W/m² | - |
| 1777983145 | 16.67° C | 46% | 1012.3 hPa | 0 mm | 1.34 m/s, 29° | 258 W/m² | - |
| 1777982841 | 16.67° C | 45% | 1012.4 hPa | 0 mm | 1.34 m/s, 22° | 229 W/m² | - |
| 1777982537 | 16.67° C | 46% | 1012.4 hPa | 0 mm | 0.45 m/s, 241° | 216 W/m² | - |
| 1777982236 | 16.67° C | 46% | 1012.3 hPa | 0 mm | 1.79 m/s, 32° | 216 W/m² | - |
| 1777981934 | 17.78° C | 45% | 1012.3 hPa | 0 mm | 2.24 m/s, 167° | 201 W/m² | - |
| 1777981631 | 17.78° C | 45% | 1012.4 hPa | 0 mm | 0.45 m/s, 101° | 322 W/m² | - |
| 1777981327 | 16.67° C | 47% | 1012.4 hPa | 0 mm | 0 m/s | 776 W/m² | - |
| 1777981023 | 16.67° C | 47% | 1012.6 hPa | 0 mm | 1.79 m/s, 59° | 184 W/m² | - |
| 1777980720 | 16.67° C | 47% | 1012.3 hPa | 0 mm | 0.89 m/s, 195° | 657 W/m² | - |
| 1777980416 | 17.78° C | 47% | 1012.6 hPa | 0 mm | 1.34 m/s, 15° | 166 W/m² | - |
* Rain latest hour (hover to see other rain measurements)
** Current wind speed in m/s (hover to see current wind gust speed)